createdAt,value
2018-07-08T00:01:16.923Z,20.12
2018-07-08T00:03:44.558Z,20.14
2018-07-08T00:06:12.142Z,20.19
2018-07-08T00:08:39.713Z,20.21
2018-07-08T00:11:07.339Z,20.21
2018-07-08T00:13:34.959Z,20.22
2018-07-08T00:16:02.623Z,20.25
2018-07-08T00:18:30.202Z,20.26
2018-07-08T00:20:57.770Z,20.25
2018-07-08T00:23:25.390Z,20.26
2018-07-08T00:25:53.009Z,20.25
2018-07-08T00:28:20.694Z,20.24
2018-07-08T00:30:48.282Z,20.23
2018-07-08T00:33:15.816Z,20.16
2018-07-08T00:35:43.386Z,20.13
2018-07-08T00:38:10.962Z,20.15
2018-07-08T00:40:38.550Z,20.13
2018-07-08T00:43:06.235Z,20.08
2018-07-08T00:45:33.868Z,20.05
2018-07-08T00:48:01.435Z,20.05
2018-07-08T00:50:28.974Z,19.96
2018-07-08T00:52:56.559Z,19.93
2018-07-08T00:55:24.201Z,19.91
2018-07-08T00:57:51.758Z,19.85
2018-07-08T01:00:32.170Z,19.81
2018-07-08T01:03:00.699Z,19.79
2018-07-08T01:05:28.526Z,19.69
2018-07-08T01:07:56.152Z,19.67
2018-07-08T01:10:23.786Z,19.63
2018-07-08T01:12:51.372Z,19.60
2018-07-08T01:15:19.014Z,19.56
2018-07-08T01:17:46.654Z,19.55
2018-07-08T01:20:14.330Z,19.49
2018-07-08T01:22:41.906Z,19.47
2018-07-08T01:25:12.770Z,19.38
2018-07-08T01:27:40.615Z,19.33
2018-07-08T01:30:08.906Z,19.32
2018-07-08T01:32:36.476Z,19.25
2018-07-08T01:35:04.110Z,19.25
2018-07-08T01:37:32.078Z,19.25
2018-07-08T01:39:59.788Z,19.27
2018-07-08T01:42:27.966Z,19.23
2018-07-08T01:44:55.564Z,19.17
2018-07-08T01:47:23.255Z,19.13
2018-07-08T01:49:51.353Z,19.14
2018-07-08T01:52:18.894Z,19.12
2018-07-08T01:54:46.579Z,19.12
2018-07-08T01:57:14.213Z,19.11
2018-07-08T01:59:42.001Z,19.05
2018-07-08T02:02:09.607Z,18.98
2018-07-08T02:04:37.213Z,18.94
2018-07-08T02:07:04.819Z,18.89
2018-07-08T02:09:32.435Z,18.85
2018-07-08T02:12:00.052Z,18.80
2018-07-08T02:14:28.058Z,18.72
2018-07-08T02:16:55.702Z,18.70
2018-07-08T02:19:23.434Z,18.70
2018-07-08T02:21:51.936Z,18.62
2018-07-08T02:24:19.590Z,18.51
2018-07-08T02:26:47.266Z,18.50
2018-07-08T02:29:14.866Z,18.46
2018-07-08T02:31:42.723Z,18.39
2018-07-08T02:34:10.302Z,18.38
2018-07-08T02:36:37.963Z,18.34
2018-07-08T02:39:06.331Z,18.32
2018-07-08T02:41:33.975Z,18.28
2018-07-08T02:44:01.676Z,18.25
2018-07-08T02:46:29.326Z,18.22
2018-07-08T02:48:56.998Z,18.20
2018-07-08T02:51:24.562Z,18.15
2018-07-08T02:53:52.195Z,18.09
2018-07-08T02:56:19.726Z,18.05
2018-07-08T02:58:47.278Z,18.00
2018-07-08T03:01:14.847Z,18.02
2018-07-08T03:03:42.382Z,18.06
2018-07-08T03:06:09.990Z,17.98
2018-07-08T03:08:37.589Z,17.94
2018-07-08T03:11:05.414Z,17.89
2018-07-08T03:13:32.959Z,17.90
2018-07-08T03:16:00.526Z,17.91
2018-07-08T03:18:28.042Z,17.90
2018-07-08T03:20:55.606Z,17.86
2018-07-08T03:23:23.197Z,17.87
2018-07-08T03:25:50.730Z,17.87
2018-07-08T03:28:18.314Z,17.91
2018-07-08T03:30:45.899Z,17.91
2018-07-08T03:33:13.462Z,17.87
2018-07-08T03:35:41.019Z,17.85
2018-07-08T03:38:08.601Z,17.86
2018-07-08T03:40:36.134Z,17.90
2018-07-08T03:43:03.671Z,17.85
2018-07-08T03:45:31.253Z,17.74
2018-07-08T03:47:58.810Z,17.60
2018-07-08T03:50:26.350Z,17.64
2018-07-08T03:52:53.971Z,17.80
2018-07-08T03:55:21.510Z,17.91
2018-07-08T03:57:49.114Z,17.98
2018-07-08T04:00:16.716Z,18.08
2018-07-08T04:02:44.305Z,18.08
2018-07-08T04:05:11.839Z,18.05
2018-07-08T04:07:39.445Z,17.98
2018-07-08T04:10:07.036Z,17.94
2018-07-08T04:12:34.571Z,17.95
2018-07-08T04:15:02.166Z,17.96
2018-07-08T04:17:29.687Z,18.03
2018-07-08T04:19:57.260Z,18.11
2018-07-08T04:22:24.839Z,18.17
2018-07-08T04:24:52.370Z,18.24
2018-07-08T04:27:19.958Z,18.39
2018-07-08T04:29:47.538Z,18.39
2018-07-08T04:32:15.068Z,18.30
2018-07-08T04:34:42.627Z,18.21
2018-07-08T04:37:10.184Z,18.16
2018-07-08T04:39:37.709Z,18.13
2018-07-08T04:42:05.245Z,18.02
2018-07-08T04:44:32.902Z,17.98
2018-07-08T04:47:00.437Z,17.92
2018-07-08T04:49:27.999Z,17.88
2018-07-08T04:51:55.673Z,17.79
2018-07-08T04:54:23.235Z,17.81
2018-07-08T04:56:50.766Z,17.73
2018-07-08T04:59:18.338Z,17.86
2018-07-08T05:01:45.858Z,17.82
2018-07-08T05:04:13.370Z,17.94
2018-07-08T05:06:40.930Z,17.97
2018-07-08T05:09:08.474Z,17.86
2018-07-08T05:11:35.987Z,17.88
2018-07-08T05:14:03.575Z,17.94
2018-07-08T05:16:31.126Z,17.96
2018-07-08T05:18:58.649Z,17.99
2018-07-08T05:21:26.213Z,18.10
2018-07-08T05:23:53.750Z,18.21
2018-07-08T05:26:21.299Z,18.30
2018-07-08T05:28:48.883Z,18.34
2018-07-08T05:31:16.414Z,18.18
2018-07-08T05:33:43.948Z,18.17
2018-07-08T05:36:11.534Z,18.21
2018-07-08T05:38:39.122Z,18.34
2018-07-08T05:41:06.690Z,18.40
2018-07-08T05:43:34.266Z,18.51
2018-07-08T05:46:01.814Z,18.61
2018-07-08T05:48:29.421Z,18.62
2018-07-08T05:50:56.989Z,18.76
2018-07-08T05:53:24.502Z,18.87
2018-07-08T05:55:52.021Z,18.98
2018-07-08T05:58:19.599Z,18.98
2018-07-08T06:00:47.129Z,18.92
2018-07-08T06:03:16.055Z,19.00
2018-07-08T06:05:43.616Z,19.06
2018-07-08T06:08:11.177Z,19.20
2018-07-08T06:10:38.694Z,19.12
2018-07-08T06:13:06.438Z,19.10
2018-07-08T06:15:33.969Z,19.16
2018-07-08T06:18:01.488Z,19.26
2018-07-08T06:20:29.085Z,19.51
2018-07-08T06:22:56.648Z,19.40
2018-07-08T06:25:24.342Z,19.46
2018-07-08T06:27:51.910Z,19.66
2018-07-08T06:30:19.467Z,19.45
2018-07-08T06:32:47.029Z,19.48
2018-07-08T06:35:14.630Z,19.39
2018-07-08T06:37:42.141Z,19.33
2018-07-08T06:40:09.694Z,19.57
2018-07-08T06:42:37.358Z,19.56
2018-07-08T06:45:05.123Z,19.51
2018-07-08T06:47:32.661Z,19.63
2018-07-08T06:50:00.254Z,19.62
2018-07-08T06:52:27.816Z,19.58
2018-07-08T06:54:55.367Z,19.62
2018-07-08T06:57:22.929Z,19.99
2018-07-08T06:59:50.454Z,20.03
2018-07-08T07:02:18.016Z,20.13
2018-07-08T07:04:45.619Z,20.23
2018-07-08T07:07:13.185Z,20.41
2018-07-08T07:09:40.718Z,20.62
2018-07-08T07:12:08.306Z,20.81
2018-07-08T07:14:35.862Z,20.97
2018-07-08T07:17:03.507Z,21.16
2018-07-08T07:19:31.065Z,21.28
2018-07-08T07:21:58.705Z,21.07
2018-07-08T07:24:26.240Z,21.16
2018-07-08T07:26:53.848Z,21.13
2018-07-08T07:29:21.395Z,21.12
2018-07-08T07:31:49.015Z,21.28
2018-07-08T07:34:16.602Z,21.67
2018-07-08T07:36:44.798Z,21.86
2018-07-08T07:39:12.356Z,21.92
2018-07-08T07:41:39.966Z,21.80
2018-07-08T07:44:07.519Z,21.59
2018-07-08T07:46:35.036Z,21.57
2018-07-08T07:49:02.670Z,21.42
2018-07-08T07:51:30.191Z,21.22
2018-07-08T07:53:57.714Z,21.28
2018-07-08T07:56:25.292Z,21.35
2018-07-08T07:58:52.916Z,21.48
2018-07-08T08:01:20.460Z,21.37
2018-07-08T08:03:48.024Z,21.50
2018-07-08T08:06:15.553Z,21.61
2018-07-08T08:08:43.057Z,21.90
2018-07-08T08:11:10.586Z,22.53
2018-07-08T08:13:48.259Z,22.74
2018-07-08T08:16:16.382Z,22.87
2018-07-08T08:18:44.025Z,22.52
2018-07-08T08:21:11.583Z,22.46
2018-07-08T08:23:39.170Z,22.59
2018-07-08T08:26:06.738Z,22.42
2018-07-08T08:28:34.295Z,22.36
2018-07-08T08:31:01.962Z,22.49
2018-07-08T08:33:29.640Z,22.70
2018-07-08T08:35:57.169Z,23.04
2018-07-08T08:38:25.265Z,23.55
2018-07-08T08:40:52.795Z,23.74
2018-07-08T08:43:20.335Z,23.74
2018-07-08T08:45:47.890Z,23.82
2018-07-08T08:48:15.448Z,23.97
2018-07-08T08:50:42.984Z,23.76
2018-07-08T08:53:10.547Z,23.59
2018-07-08T08:55:38.105Z,23.20
2018-07-08T08:58:05.633Z,23.26
2018-07-08T09:00:33.235Z,23.75
2018-07-08T09:03:00.762Z,23.72
2018-07-08T09:05:28.282Z,24.03
2018-07-08T09:07:55.854Z,24.38
2018-07-08T09:10:23.398Z,24.48
2018-07-08T09:12:51.306Z,24.57
2018-07-08T09:15:18.978Z,24.84
2018-07-08T09:17:46.510Z,25.18
2018-07-08T09:20:14.082Z,25.35
2018-07-08T09:22:41.657Z,25.55
2018-07-08T09:25:09.231Z,25.78
2018-07-08T09:27:36.767Z,25.86
2018-07-08T09:30:04.472Z,26.79
2018-07-08T09:32:31.970Z,26.52
2018-07-08T09:34:59.510Z,25.93
2018-07-08T09:37:27.086Z,26.24
2018-07-08T09:39:54.627Z,27.10
2018-07-08T09:42:22.167Z,27.36
2018-07-08T09:44:49.717Z,26.72
2018-07-08T09:47:17.237Z,26.44
2018-07-08T09:49:44.769Z,26.18
2018-07-08T09:52:12.306Z,26.02
2018-07-08T09:54:39.843Z,25.80
2018-07-08T09:57:07.394Z,25.29
2018-07-08T09:59:34.966Z,24.99
2018-07-08T10:02:02.466Z,25.44
2018-07-08T10:04:30.010Z,25.74
2018-07-08T10:06:57.583Z,26.20
2018-07-08T10:09:25.478Z,26.93
2018-07-08T10:11:53.042Z,27.26
2018-07-08T10:14:21.734Z,27.28
2018-07-08T10:16:49.290Z,27.91
2018-07-08T10:19:17.850Z,28.24
2018-07-08T10:21:45.473Z,28.05
2018-07-08T10:24:13.010Z,27.69
2018-07-08T10:26:40.574Z,27.31
2018-07-08T10:29:08.623Z,26.99
2018-07-08T10:31:49.106Z,27.00
2018-07-08T10:34:16.964Z,26.91
2018-07-08T10:36:44.604Z,26.89
2018-07-08T10:39:13.132Z,26.34
2018-07-08T10:41:41.047Z,25.91
2018-07-08T10:44:08.694Z,25.86
2018-07-08T10:46:36.255Z,25.84
2018-07-08T10:49:03.889Z,25.74
2018-07-08T10:51:31.395Z,25.68
2018-07-08T10:53:58.986Z,25.36
2018-07-08T10:56:26.564Z,25.42
2018-07-08T10:58:54.094Z,25.45
2018-07-08T11:01:21.641Z,25.06
2018-07-08T11:03:49.278Z,24.80
2018-07-08T11:06:16.818Z,24.88
2018-07-08T11:08:44.336Z,24.81
2018-07-08T11:11:11.934Z,24.82
2018-07-08T11:13:39.580Z,24.74
2018-07-08T11:16:07.101Z,24.82
2018-07-08T11:18:34.690Z,24.76
2018-07-08T11:21:02.266Z,24.50
2018-07-08T11:23:29.800Z,24.61
2018-07-08T11:25:57.365Z,24.55
2018-07-08T11:28:24.916Z,24.39
2018-07-08T11:30:52.526Z,24.03
2018-07-08T11:33:20.115Z,24.00
2018-07-08T11:35:47.660Z,23.94
2018-07-08T11:38:15.246Z,24.22
2018-07-08T11:40:42.838Z,24.41
2018-07-08T11:43:10.360Z,24.77
2018-07-08T11:45:37.911Z,24.97
2018-07-08T11:48:05.517Z,25.08
2018-07-08T11:50:33.158Z,25.19
2018-07-08T11:53:00.688Z,25.26
2018-07-08T11:55:28.308Z,25.06
2018-07-08T11:57:55.897Z,24.66
2018-07-08T12:00:23.473Z,24.89
2018-07-08T12:02:51.053Z,25.03
2018-07-08T12:05:18.638Z,25.00
2018-07-08T12:07:46.243Z,25.14
2018-07-08T12:10:13.828Z,25.45
2018-07-08T12:12:41.469Z,25.71
2018-07-08T12:15:09.034Z,26.20
2018-07-08T12:17:36.795Z,26.51
2018-07-08T12:20:04.369Z,26.38
2018-07-08T12:22:31.921Z,26.31
2018-07-08T12:24:59.795Z,26.07
2018-07-08T12:27:27.551Z,26.40
2018-07-08T12:29:55.186Z,26.39
2018-07-08T12:32:22.732Z,26.42
2018-07-08T12:34:50.542Z,26.69
2018-07-08T12:37:18.147Z,26.56
2018-07-08T12:39:45.751Z,26.32
2018-07-08T12:42:13.267Z,25.96
2018-07-08T12:44:41.043Z,25.76
2018-07-08T12:47:08.482Z,26.37
2018-07-08T12:49:36.080Z,28.10
2018-07-08T12:52:03.680Z,28.34
2018-07-08T12:54:31.262Z,29.78
2018-07-08T12:56:58.991Z,31.18
2018-07-08T12:59:26.509Z,32.87
2018-07-08T13:01:54.085Z,33.04
2018-07-08T13:04:21.870Z,31.67
2018-07-08T13:06:49.417Z,30.46
2018-07-08T13:09:17.093Z,29.43
2018-07-08T13:11:44.938Z,28.92
2018-07-08T13:14:12.421Z,29.54
2018-07-08T13:16:40.055Z,32.06
2018-07-08T13:19:07.569Z,33.37
2018-07-08T13:21:35.327Z,31.75
2018-07-08T13:24:02.986Z,30.90
2018-07-08T13:26:30.579Z,31.33
2018-07-08T13:28:58.071Z,30.68
2018-07-08T13:31:25.795Z,29.92
2018-07-08T13:33:53.343Z,29.95
2018-07-08T13:36:20.933Z,31.87
2018-07-08T13:38:48.643Z,31.54
2018-07-08T13:41:16.214Z,30.89
2018-07-08T13:43:43.738Z,30.68
2018-07-08T13:46:11.374Z,32.74
2018-07-08T13:48:38.907Z,32.13
2018-07-08T13:51:06.763Z,30.38
2018-07-08T13:53:34.324Z,30.93
2018-07-08T13:56:01.866Z,29.80
2018-07-08T13:58:29.415Z,29.55
2018-07-08T14:00:57.001Z,29.37
2018-07-08T14:03:24.545Z,29.12
2018-07-08T14:05:52.191Z,30.12
2018-07-08T14:08:19.739Z,32.81
2018-07-08T14:10:47.544Z,34.36
2018-07-08T14:13:15.348Z,33.29
2018-07-08T14:15:44.066Z,31.52
2018-07-08T14:18:11.899Z,30.49
2018-07-08T14:20:39.752Z,30.63
2018-07-08T14:23:07.336Z,30.85
2018-07-08T14:25:35.081Z,30.11
2018-07-08T14:28:02.758Z,29.67
2018-07-08T14:30:30.401Z,29.22
2018-07-08T14:32:58.087Z,29.24
2018-07-08T14:35:25.682Z,29.89
2018-07-08T14:37:53.634Z,30.85
2018-07-08T14:40:21.181Z,31.97
2018-07-08T14:42:48.795Z,32.29
2018-07-08T14:45:16.677Z,32.14
2018-07-08T14:47:44.370Z,33.29
2018-07-08T14:50:12.011Z,33.29
2018-07-08T14:52:39.684Z,33.53
2018-07-08T14:55:07.312Z,32.06
2018-07-08T14:57:35.036Z,30.69
2018-07-08T15:00:02.986Z,30.01
2018-07-08T15:02:30.787Z,29.48
2018-07-08T15:04:58.467Z,29.07
2018-07-08T15:07:26.246Z,28.61
2018-07-08T15:09:53.976Z,28.39
2018-07-08T15:12:21.591Z,28.51
2018-07-08T15:14:49.244Z,28.33
2018-07-08T15:17:17.010Z,28.40
2018-07-08T15:19:44.555Z,28.29
2018-07-08T15:22:12.246Z,28.06
2018-07-08T15:24:39.870Z,28.36
2018-07-08T15:27:07.411Z,28.54
2018-07-08T15:29:35.129Z,28.24
2018-07-08T15:32:02.739Z,27.85
2018-07-08T15:34:30.346Z,27.57
2018-07-08T15:36:58.186Z,27.55
2018-07-08T15:39:25.720Z,27.74
2018-07-08T15:41:53.464Z,27.78
2018-07-08T15:44:21.558Z,27.78
2018-07-08T15:46:49.219Z,27.73
2018-07-08T15:49:16.766Z,27.62
2018-07-08T15:51:44.330Z,27.69
2018-07-08T15:54:12.047Z,27.59
2018-07-08T15:56:39.702Z,27.41
2018-07-08T15:59:07.590Z,27.12
2018-07-08T16:01:35.349Z,26.95
2018-07-08T16:04:02.994Z,26.80
2018-07-08T16:06:30.591Z,26.77
2018-07-08T16:08:58.317Z,26.70
2018-07-08T16:11:26.242Z,26.73
2018-07-08T16:13:54.215Z,26.76
2018-07-08T16:16:21.958Z,26.72
2018-07-08T16:18:49.698Z,26.70
2018-07-08T16:21:17.495Z,26.79
2018-07-08T16:23:45.419Z,26.95
2018-07-08T16:26:13.016Z,27.05
2018-07-08T16:28:40.983Z,27.05
2018-07-08T16:31:08.649Z,27.09
2018-07-08T16:33:36.810Z,27.29
2018-07-08T16:36:05.216Z,27.50
2018-07-08T16:38:34.137Z,27.46
2018-07-08T16:41:01.790Z,27.54
2018-07-08T16:43:29.540Z,27.47
2018-07-08T16:45:57.151Z,27.48
2018-07-08T16:48:25.172Z,27.37
2018-07-08T16:50:52.874Z,27.28
2018-07-08T16:53:20.521Z,27.11
2018-07-08T16:55:48.355Z,26.97
2018-07-08T16:58:16.124Z,26.84
2018-07-08T17:00:43.694Z,26.68
2018-07-08T17:03:11.455Z,26.53
2018-07-08T17:05:39.035Z,26.42
2018-07-08T17:08:06.602Z,26.32
2018-07-08T17:10:34.511Z,26.15
2018-07-08T17:13:02.063Z,26.07
2018-07-08T17:15:29.802Z,26.09
2018-07-08T17:17:57.415Z,26.10
2018-07-08T17:20:25.065Z,26.04
2018-07-08T17:22:52.712Z,25.95
2018-07-08T17:25:20.245Z,25.96
2018-07-08T17:27:48.027Z,25.90
2018-07-08T17:30:16.329Z,25.77
2018-07-08T17:32:44.057Z,25.71
2018-07-08T17:35:13.695Z,25.62
2018-07-08T17:37:41.511Z,25.60
2018-07-08T17:40:09.041Z,25.58
2018-07-08T17:42:36.671Z,25.58
2018-07-08T17:45:04.766Z,25.57
2018-07-08T17:47:32.406Z,25.56
2018-07-08T17:50:00.238Z,25.53
2018-07-08T17:52:27.988Z,25.49
2018-07-08T17:54:55.628Z,25.45
2018-07-08T17:57:23.337Z,25.42
2018-07-08T17:59:50.942Z,25.35
2018-07-08T18:02:18.532Z,25.19
2018-07-08T18:04:46.343Z,25.03
2018-07-08T18:07:13.894Z,24.97
2018-07-08T18:09:41.563Z,24.95
2018-07-08T18:12:09.172Z,24.96
2018-07-08T18:14:36.871Z,24.92
2018-07-08T18:17:04.622Z,24.95
2018-07-08T18:19:33.293Z,24.95
2018-07-08T18:22:00.884Z,24.90
2018-07-08T18:24:28.639Z,24.92
2018-07-08T18:26:56.238Z,24.91
2018-07-08T18:29:23.930Z,24.87
2018-07-08T18:31:51.484Z,24.87
2018-07-08T18:34:19.338Z,24.84
2018-07-08T18:36:46.939Z,24.75
2018-07-08T18:39:14.935Z,24.68
2018-07-08T18:41:42.623Z,24.68
2018-07-08T18:44:10.321Z,24.56
2018-07-08T18:46:38.322Z,24.50
2018-07-08T18:49:06.098Z,24.43
2018-07-08T18:51:33.846Z,24.37
2018-07-08T18:54:01.731Z,24.32
2018-07-08T18:56:29.354Z,24.32
2018-07-08T18:58:57.090Z,24.28
2018-07-08T19:01:25.312Z,24.24
2018-07-08T19:03:53.409Z,24.11
2018-07-08T19:06:21.086Z,24.07
2018-07-08T19:08:49.921Z,24.03
2018-07-08T19:11:17.500Z,23.99
2018-07-08T19:13:45.230Z,23.94
2018-07-08T19:16:12.886Z,23.84
2018-07-08T19:18:40.502Z,23.73
2018-07-08T19:21:08.216Z,23.68
2018-07-08T19:23:35.981Z,23.63
2018-07-08T19:26:03.641Z,23.53
2018-07-08T19:28:31.351Z,23.45
2018-07-08T19:30:58.945Z,23.37
2018-07-08T19:33:26.647Z,23.37
2018-07-08T19:35:54.183Z,23.30
2018-07-08T19:38:21.711Z,23.16
2018-07-08T19:40:49.748Z,23.07
2018-07-08T19:43:17.292Z,22.98
2018-07-08T19:45:45.016Z,22.92
2018-07-08T19:48:12.717Z,22.87
2018-07-08T19:50:40.335Z,22.77
2018-07-08T19:53:09.074Z,22.70
2018-07-08T19:55:36.847Z,22.65
2018-07-08T19:58:04.417Z,22.59
2018-07-08T20:00:32.241Z,22.53
2018-07-08T20:03:00.396Z,22.49
2018-07-08T20:05:28.096Z,22.45
2018-07-08T20:07:56.115Z,22.46
2018-07-08T20:10:23.757Z,22.46
2018-07-08T20:12:51.511Z,22.44
2018-07-08T20:15:19.220Z,22.40
2018-07-08T20:17:46.890Z,22.39
2018-07-08T20:20:14.702Z,22.38
2018-07-08T20:22:42.297Z,22.35
2018-07-08T20:25:10.078Z,22.32
2018-07-08T20:27:37.930Z,22.30
2018-07-08T20:30:05.625Z,22.27
2018-07-08T20:32:33.245Z,22.24
2018-07-08T20:35:01.012Z,22.25
2018-07-08T20:37:28.657Z,22.22
2018-07-08T20:39:56.417Z,22.21
2018-07-08T20:42:24.028Z,22.18
2018-07-08T20:44:51.649Z,22.18
2018-07-08T20:47:19.538Z,22.18
2018-07-08T20:49:47.197Z,22.19
2018-07-08T20:52:14.961Z,22.21
2018-07-08T20:54:42.637Z,22.24
2018-07-08T20:57:10.224Z,22.24
2018-07-08T20:59:37.974Z,22.23
2018-07-08T21:02:05.575Z,22.22
2018-07-08T21:04:33.298Z,22.20
2018-07-08T21:07:00.909Z,22.16
2018-07-08T21:09:28.593Z,22.07
2018-07-08T21:11:56.297Z,21.96
2018-07-08T21:14:23.886Z,21.92
2018-07-08T21:16:51.527Z,21.80
2018-07-08T21:19:19.438Z,21.83
2018-07-08T21:21:46.983Z,21.78
2018-07-08T21:24:15.319Z,21.74
2018-07-08T21:26:43.016Z,21.71
2018-07-08T21:29:10.663Z,21.69
2018-07-08T21:31:39.019Z,21.63
2018-07-08T21:34:06.578Z,21.59
2018-07-08T21:36:34.238Z,21.61
2018-07-08T21:39:02.107Z,21.64
2018-07-08T21:41:29.830Z,21.65
2018-07-08T21:43:57.459Z,21.65
2018-07-08T21:46:25.140Z,21.62
2018-07-08T21:48:52.706Z,21.64
2018-07-08T21:51:20.407Z,21.61
2018-07-08T21:53:47.966Z,21.59
2018-07-08T21:56:15.554Z,21.53
2018-07-08T21:58:43.547Z,21.50
2018-07-08T22:01:14.210Z,21.50
2018-07-08T22:03:42.262Z,21.48
2018-07-08T22:06:09.870Z,21.43
2018-07-08T22:08:37.641Z,21.39
2018-07-08T22:11:07.114Z,21.46
2018-07-08T22:13:34.993Z,21.45
2018-07-08T22:16:02.862Z,21.45
2018-07-08T22:18:30.862Z,21.47
2018-07-08T22:20:58.817Z,21.42
2018-07-08T22:23:26.550Z,21.46
2018-07-08T22:25:54.306Z,21.49
2018-07-08T22:28:21.907Z,21.51
2018-07-08T22:30:49.707Z,21.56
2018-07-08T22:33:18.151Z,21.54
2018-07-08T22:35:45.786Z,21.44
2018-07-08T22:38:13.497Z,21.41
2018-07-08T22:40:41.061Z,21.45
2018-07-08T22:43:08.781Z,21.41
2018-07-08T22:45:36.420Z,21.37
2018-07-08T22:48:04.142Z,21.36
2018-07-08T22:50:32.233Z,21.35
2018-07-08T22:52:59.778Z,21.30
2018-07-08T22:55:27.409Z,21.31
2018-07-08T22:57:55.123Z,21.33
2018-07-08T23:00:33.982Z,21.36
2018-07-08T23:04:10.922Z,21.33
2018-07-08T23:06:38.659Z,21.28
2018-07-08T23:09:06.330Z,21.26
2018-07-08T23:11:33.888Z,21.25
2018-07-08T23:14:01.709Z,21.28
2018-07-08T23:16:29.370Z,21.28
2018-07-08T23:18:57.114Z,21.27
2018-07-08T23:21:25.033Z,21.20
2018-07-08T23:23:52.595Z,21.20
2018-07-08T23:26:20.426Z,21.21
2018-07-08T23:28:48.010Z,21.21
2018-07-08T23:31:15.593Z,21.21
2018-07-08T23:33:43.313Z,21.26
2018-07-08T23:36:11.342Z,21.28
2018-07-08T23:38:39.093Z,21.31
2018-07-08T23:41:07.870Z,21.33
2018-07-08T23:43:35.450Z,21.39
2018-07-08T23:46:03.602Z,21.39
2018-07-08T23:48:31.682Z,21.39
2018-07-08T23:50:59.279Z,21.41
2018-07-08T23:53:27.064Z,21.45
2018-07-08T23:55:54.686Z,21.41
2018-07-08T23:58:22.286Z,21.41
